sensor_id;sensor_type;location;lat;lon;timestamp;temperature;humidity
49413;DHT22;35493;50.276;9.372;2023-12-22T00:00:27;6.20;87.40
49413;DHT22;35493;50.276;9.372;2023-12-22T00:03:00;6.30;87.50
49413;DHT22;35493;50.276;9.372;2023-12-22T00:05:33;6.30;87.40
49413;DHT22;35493;50.276;9.372;2023-12-22T00:08:06;6.30;87.40
49413;DHT22;35493;50.276;9.372;2023-12-22T00:10:39;6.20;87.40
49413;DHT22;35493;50.276;9.372;2023-12-22T00:13:13;6.20;87.50
49413;DHT22;35493;50.276;9.372;2023-12-22T00:15:47;6.20;87.50
49413;DHT22;35493;50.276;9.372;2023-12-22T00:18:20;6.20;87.50
49413;DHT22;35493;50.276;9.372;2023-12-22T00:20:53;6.20;87.50
49413;DHT22;35493;50.276;9.372;2023-12-22T00:23:26;6.20;87.60
49413;DHT22;35493;50.276;9.372;2023-12-22T00:25:59;6.10;87.50
49413;DHT22;35493;50.276;9.372;2023-12-22T00:28:33;6.10;87.60
49413;DHT22;35493;50.276;9.372;2023-12-22T00:31:07;6.20;87.60
49413;DHT22;35493;50.276;9.372;2023-12-22T00:33:40;6.20;87.60
49413;DHT22;35493;50.276;9.372;2023-12-22T00:36:13;6.10;87.50
49413;DHT22;35493;50.276;9.372;2023-12-22T00:38:46;6.10;87.50
49413;DHT22;35493;50.276;9.372;2023-12-22T00:41:19;6.10;87.50
49413;DHT22;35493;50.276;9.372;2023-12-22T00:43:53;6.00;87.50
49413;DHT22;35493;50.276;9.372;2023-12-22T00:46:27;6.00;87.40
49413;DHT22;35493;50.276;9.372;2023-12-22T00:49:00;6.00;87.50
49413;DHT22;35493;50.276;9.372;2023-12-22T00:51:33;6.00;87.30
49413;DHT22;35493;50.276;9.372;2023-12-22T00:54:06;5.90;87.40
49413;DHT22;35493;50.276;9.372;2023-12-22T00:56:46;5.90;87.30
49413;DHT22;35493;50.276;9.372;2023-12-22T00:59:20;5.90;87.40
49413;DHT22;35493;50.276;9.372;2023-12-22T01:01:54;5.90;87.40
49413;DHT22;35493;50.276;9.372;2023-12-22T01:04:27;5.90;87.40
49413;DHT22;35493;50.276;9.372;2023-12-22T01:07:00;5.90;87.10
49413;DHT22;35493;50.276;9.372;2023-12-22T01:09:33;5.90;87.10
49413;DHT22;35493;50.276;9.372;2023-12-22T01:12:13;5.90;87.10
49413;DHT22;35493;50.276;9.372;2023-12-22T01:14:50;5.90;86.90
49413;DHT22;35493;50.276;9.372;2023-12-22T01:17:23;5.90;86.90
49413;DHT22;35493;50.276;9.372;2023-12-22T01:19:56;5.90;86.70
49413;DHT22;35493;50.276;9.372;2023-12-22T01:22:29;5.90;86.80
49413;DHT22;35493;50.276;9.372;2023-12-22T01:25:04;5.90;86.90
49413;DHT22;35493;50.276;9.372;2023-12-22T01:27:37;5.90;86.60
49413;DHT22;35493;50.276;9.372;2023-12-22T01:30:12;5.90;86.70
49413;DHT22;35493;50.276;9.372;2023-12-22T01:32:45;6.00;86.60
49413;DHT22;35493;50.276;9.372;2023-12-22T01:35:18;6.00;86.40
49413;DHT22;35493;50.276;9.372;2023-12-22T01:37:51;5.90;86.30
49413;DHT22;35493;50.276;9.372;2023-12-22T01:40:24;5.90;86.20
49413;DHT22;35493;50.276;9.372;2023-12-22T01:42:51;6.00;86.40
49413;DHT22;35493;50.276;9.372;2023-12-22T01:45:25;5.90;86.30
49413;DHT22;35493;50.276;9.372;2023-12-22T01:47:59;5.90;86.30
49413;DHT22;35493;50.276;9.372;2023-12-22T01:50:32;5.90;86.30
49413;DHT22;35493;50.276;9.372;2023-12-22T01:53:05;5.90;86.20
49413;DHT22;35493;50.276;9.372;2023-12-22T01:55:38;5.90;86.40
49413;DHT22;35493;50.276;9.372;2023-12-22T01:58:11;5.80;86.40
49413;DHT22;35493;50.276;9.372;2023-12-22T02:00:46;5.80;86.40
49413;DHT22;35493;50.276;9.372;2023-12-22T02:03:19;5.80;86.30
49413;DHT22;35493;50.276;9.372;2023-12-22T02:05:53;5.80;86.50
49413;DHT22;35493;50.276;9.372;2023-12-22T02:08:26;5.80;86.40
49413;DHT22;35493;50.276;9.372;2023-12-22T02:11:00;5.80;86.40
49413;DHT22;35493;50.276;9.372;2023-12-22T02:13:34;5.70;86.50
49413;DHT22;35493;50.276;9.372;2023-12-22T02:16:10;5.70;86.40
49413;DHT22;35493;50.276;9.372;2023-12-22T02:18:46;5.70;86.50
49413;DHT22;35493;50.276;9.372;2023-12-22T02:21:19;5.70;86.40
49413;DHT22;35493;50.276;9.372;2023-12-22T02:23:53;5.70;86.20
49413;DHT22;35493;50.276;9.372;2023-12-22T02:26:28;5.70;86.30
49413;DHT22;35493;50.276;9.372;2023-12-22T02:29:02;5.70;86.10
49413;DHT22;35493;50.276;9.372;2023-12-22T02:31:37;5.70;86.30
49413;DHT22;35493;50.276;9.372;2023-12-22T02:34:12;5.70;86.20
49413;DHT22;35493;50.276;9.372;2023-12-22T02:36:46;5.70;86.10
49413;DHT22;35493;50.276;9.372;2023-12-22T02:39:22;5.70;86.30
49413;DHT22;35493;50.276;9.372;2023-12-22T02:41:55;5.60;86.30
49413;DHT22;35493;50.276;9.372;2023-12-22T02:44:28;5.60;86.40
49413;DHT22;35493;50.276;9.372;2023-12-22T02:47:01;5.60;86.40
49413;DHT22;35493;50.276;9.372;2023-12-22T02:49:34;5.60;86.30
49413;DHT22;35493;50.276;9.372;2023-12-22T02:52:07;5.60;86.30
49413;DHT22;35493;50.276;9.372;2023-12-22T02:54:42;5.60;86.40
49413;DHT22;35493;50.276;9.372;2023-12-22T02:57:15;5.60;86.30
49413;DHT22;35493;50.276;9.372;2023-12-22T02:59:48;5.60;86.30
49413;DHT22;35493;50.276;9.372;2023-12-22T03:02:21;5.50;86.40
49413;DHT22;35493;50.276;9.372;2023-12-22T03:04:54;5.50;86.50
49413;DHT22;35493;50.276;9.372;2023-12-22T03:07:27;5.50;86.70
49413;DHT22;35493;50.276;9.372;2023-12-22T03:10:02;5.50;86.60
49413;DHT22;35493;50.276;9.372;2023-12-22T03:12:35;5.50;86.60
49413;DHT22;35493;50.276;9.372;2023-12-22T03:15:09;5.50;86.60
49413;DHT22;35493;50.276;9.372;2023-12-22T03:17:42;5.50;86.60
49413;DHT22;35493;50.276;9.372;2023-12-22T03:20:15;5.50;86.70
49413;DHT22;35493;50.276;9.372;2023-12-22T03:22:48;5.40;86.90
49413;DHT22;35493;50.276;9.372;2023-12-22T03:25:29;5.40;86.40
49413;DHT22;35493;50.276;9.372;2023-12-22T03:28:02;5.40;86.70
49413;DHT22;35493;50.276;9.372;2023-12-22T03:30:35;5.40;86.60
49413;DHT22;35493;50.276;9.372;2023-12-22T03:33:09;5.40;86.60
49413;DHT22;35493;50.276;9.372;2023-12-22T03:35:42;5.40;86.70
49413;DHT22;35493;50.276;9.372;2023-12-22T03:38:15;5.50;86.70
49413;DHT22;35493;50.276;9.372;2023-12-22T03:40:50;5.40;86.60
49413;DHT22;35493;50.276;9.372;2023-12-22T03:43:23;5.40;86.80
49413;DHT22;35493;50.276;9.372;2023-12-22T03:45:56;5.40;86.80
49413;DHT22;35493;50.276;9.372;2023-12-22T03:48:29;5.40;86.70
49413;DHT22;35493;50.276;9.372;2023-12-22T03:51:02;5.30;86.70
49413;DHT22;35493;50.276;9.372;2023-12-22T03:53:35;5.30;86.60
49413;DHT22;35493;50.276;9.372;2023-12-22T03:56:03;5.30;86.40
49413;DHT22;35493;50.276;9.372;2023-12-22T03:58:36;5.30;86.50
49413;DHT22;35493;50.276;9.372;2023-12-22T04:01:13;5.30;86.70
49413;DHT22;35493;50.276;9.372;2023-12-22T04:03:46;5.20;86.80
49413;DHT22;35493;50.276;9.372;2023-12-22T04:06:19;5.20;87.00
49413;DHT22;35493;50.276;9.372;2023-12-22T04:08:52;5.20;86.80
49413;DHT22;35493;50.276;9.372;2023-12-22T04:11:27;5.20;86.80
49413;DHT22;35493;50.276;9.372;2023-12-22T04:14:00;5.20;86.50
49413;DHT22;35493;50.276;9.372;2023-12-22T04:16:35;5.20;86.60
49413;DHT22;35493;50.276;9.372;2023-12-22T04:19:08;5.20;86.50
49413;DHT22;35493;50.276;9.372;2023-12-22T04:21:41;5.20;86.30
49413;DHT22;35493;50.276;9.372;2023-12-22T04:24:14;5.20;86.50
49413;DHT22;35493;50.276;9.372;2023-12-22T04:26:49;5.20;86.50
49413;DHT22;35493;50.276;9.372;2023-12-22T04:29:22;5.20;86.40
49413;DHT22;35493;50.276;9.372;2023-12-22T04:31:55;5.20;86.10
49413;DHT22;35493;50.276;9.372;2023-12-22T04:34:28;5.20;86.30
49413;DHT22;35493;50.276;9.372;2023-12-22T04:37:01;5.20;86.20
49413;DHT22;35493;50.276;9.372;2023-12-22T04:39:41;5.20;86.20
49413;DHT22;35493;50.276;9.372;2023-12-22T04:42:16;5.20;86.10
49413;DHT22;35493;50.276;9.372;2023-12-22T04:44:50;5.10;86.40
49413;DHT22;35493;50.276;9.372;2023-12-22T04:47:24;5.20;86.40
49413;DHT22;35493;50.276;9.372;2023-12-22T04:49:57;5.20;86.30
49413;DHT22;35493;50.276;9.372;2023-12-22T04:52:30;5.10;86.50
49413;DHT22;35493;50.276;9.372;2023-12-22T04:55:04;5.10;86.40
49413;DHT22;35493;50.276;9.372;2023-12-22T04:57:39;5.10;86.50
49413;DHT22;35493;50.276;9.372;2023-12-22T05:00:12;5.10;86.30
49413;DHT22;35493;50.276;9.372;2023-12-22T05:02:45;5.10;86.30
49413;DHT22;35493;50.276;9.372;2023-12-22T05:05:18;5.00;86.40
49413;DHT22;35493;50.276;9.372;2023-12-22T05:07:51;5.10;86.60
49413;DHT22;35493;50.276;9.372;2023-12-22T05:10:24;5.10;86.50
49413;DHT22;35493;50.276;9.372;2023-12-22T05:12:59;5.10;86.50
49413;DHT22;35493;50.276;9.372;2023-12-22T05:15:32;5.10;86.60
49413;DHT22;35493;50.276;9.372;2023-12-22T05:18:05;5.20;86.70
49413;DHT22;35493;50.276;9.372;2023-12-22T05:20:38;5.10;86.50
49413;DHT22;35493;50.276;9.372;2023-12-22T05:23:11;5.00;86.60
49413;DHT22;35493;50.276;9.372;2023-12-22T05:25:44;5.10;86.60
49413;DHT22;35493;50.276;9.372;2023-12-22T05:28:19;5.10;86.60
49413;DHT22;35493;50.276;9.372;2023-12-22T05:30:52;5.10;86.70
49413;DHT22;35493;50.276;9.372;2023-12-22T05:33:25;5.20;86.70
49413;DHT22;35493;50.276;9.372;2023-12-22T05:35:58;5.10;86.60
49413;DHT22;35493;50.276;9.372;2023-12-22T05:38:31;5.10;86.60
49413;DHT22;35493;50.276;9.372;2023-12-22T05:41:04;5.20;86.70
49413;DHT22;35493;50.276;9.372;2023-12-22T05:43:40;5.10;86.80
49413;DHT22;35493;50.276;9.372;2023-12-22T05:46:13;5.20;86.80
49413;DHT22;35493;50.276;9.372;2023-12-22T05:48:46;5.10;86.60
49413;DHT22;35493;50.276;9.372;2023-12-22T05:51:19;5.00;86.90
49413;DHT22;35493;50.276;9.372;2023-12-22T05:53:53;5.00;86.80
49413;DHT22;35493;50.276;9.372;2023-12-22T05:56:26;5.00;86.80
49413;DHT22;35493;50.276;9.372;2023-12-22T05:59:01;4.90;86.90
49413;DHT22;35493;50.276;9.372;2023-12-22T06:01:34;5.00;87.20
49413;DHT22;35493;50.276;9.372;2023-12-22T06:04:08;5.00;87.40
49413;DHT22;35493;50.276;9.372;2023-12-22T06:06:41;5.00;87.60
49413;DHT22;35493;50.276;9.372;2023-12-22T06:09:14;5.00;87.60
49413;DHT22;35493;50.276;9.372;2023-12-22T06:11:56;5.10;87.60
49413;DHT22;35493;50.276;9.372;2023-12-22T06:14:31;5.10;87.70
49413;DHT22;35493;50.276;9.372;2023-12-22T06:17:04;5.10;87.70
49413;DHT22;35493;50.276;9.372;2023-12-22T06:19:37;5.10;87.80
49413;DHT22;35493;50.276;9.372;2023-12-22T06:22:10;5.00;87.90
49413;DHT22;35493;50.276;9.372;2023-12-22T06:24:43;5.00;87.90
49413;DHT22;35493;50.276;9.372;2023-12-22T06:27:16;4.90;88.00
49413;DHT22;35493;50.276;9.372;2023-12-22T06:29:51;4.90;88.00
49413;DHT22;35493;50.276;9.372;2023-12-22T06:32:23;4.90;88.00
49413;DHT22;35493;50.276;9.372;2023-12-22T06:34:56;4.90;88.20
49413;DHT22;35493;50.276;9.372;2023-12-22T06:37:31;4.90;88.20
49413;DHT22;35493;50.276;9.372;2023-12-22T06:40:05;4.90;88.30
49413;DHT22;35493;50.276;9.372;2023-12-22T06:42:38;4.90;88.20
49413;DHT22;35493;50.276;9.372;2023-12-22T06:45:07;4.90;88.40
49413;DHT22;35493;50.276;9.372;2023-12-22T06:47:42;4.90;88.40
49413;DHT22;35493;50.276;9.372;2023-12-22T06:50:15;5.00;88.30
49413;DHT22;35493;50.276;9.372;2023-12-22T06:52:48;4.90;88.20
49413;DHT22;35493;50.276;9.372;2023-12-22T06:55:22;5.00;88.30
49413;DHT22;35493;50.276;9.372;2023-12-22T06:57:55;5.00;88.20
49413;DHT22;35493;50.276;9.372;2023-12-22T07:00:30;5.00;88.20
49413;DHT22;35493;50.276;9.372;2023-12-22T07:03:03;4.90;88.20
49413;DHT22;35493;50.276;9.372;2023-12-22T07:05:36;5.00;88.30
49413;DHT22;35493;50.276;9.372;2023-12-22T07:08:04;5.00;88.30
49413;DHT22;35493;50.276;9.372;2023-12-22T07:10:37;5.00;88.40
49413;DHT22;35493;50.276;9.372;2023-12-22T07:13:10;5.00;88.50
49413;DHT22;35493;50.276;9.372;2023-12-22T07:15:45;5.00;88.60
49413;DHT22;35493;50.276;9.372;2023-12-22T07:18:18;5.10;88.50
49413;DHT22;35493;50.276;9.372;2023-12-22T07:20:51;5.10;88.40
49413;DHT22;35493;50.276;9.372;2023-12-22T07:23:24;5.10;88.50
49413;DHT22;35493;50.276;9.372;2023-12-22T07:25:58;5.10;88.60
49413;DHT22;35493;50.276;9.372;2023-12-22T07:28:39;5.20;88.60
49413;DHT22;35493;50.276;9.372;2023-12-22T07:31:13;5.20;88.70
49413;DHT22;35493;50.276;9.372;2023-12-22T07:33:46;5.20;88.50
49413;DHT22;35493;50.276;9.372;2023-12-22T07:36:19;5.20;88.60
49413;DHT22;35493;50.276;9.372;2023-12-22T07:38:52;5.20;88.60
49413;DHT22;35493;50.276;9.372;2023-12-22T07:41:26;5.20;88.60
49413;DHT22;35493;50.276;9.372;2023-12-22T07:43:53;5.30;88.70
49413;DHT22;35493;50.276;9.372;2023-12-22T07:46:28;5.30;88.70
49413;DHT22;35493;50.276;9.372;2023-12-22T07:49:01;5.30;88.70
49413;DHT22;35493;50.276;9.372;2023-12-22T07:51:34;5.30;88.70
49413;DHT22;35493;50.276;9.372;2023-12-22T07:54:07;5.30;88.80
49413;DHT22;35493;50.276;9.372;2023-12-22T07:56:40;5.40;88.70
49413;DHT22;35493;50.276;9.372;2023-12-22T07:59:14;5.30;88.80
49413;DHT22;35493;50.276;9.372;2023-12-22T08:01:49;5.30;88.70
49413;DHT22;35493;50.276;9.372;2023-12-22T08:04:22;5.40;88.80
49413;DHT22;35493;50.276;9.372;2023-12-22T08:06:55;5.40;88.70
49413;DHT22;35493;50.276;9.372;2023-12-22T08:09:28;5.40;88.70
49413;DHT22;35493;50.276;9.372;2023-12-22T08:12:01;5.40;88.50
49413;DHT22;35493;50.276;9.372;2023-12-22T08:14:35;5.40;88.60
49413;DHT22;35493;50.276;9.372;2023-12-22T08:17:10;5.40;88.60
49413;DHT22;35493;50.276;9.372;2023-12-22T08:19:44;5.40;88.70
49413;DHT22;35493;50.276;9.372;2023-12-22T08:22:11;5.40;88.90
49413;DHT22;35493;50.276;9.372;2023-12-22T08:24:45;5.40;88.90
49413;DHT22;35493;50.276;9.372;2023-12-22T08:27:19;5.40;88.80
49413;DHT22;35493;50.276;9.372;2023-12-22T08:29:52;5.40;89.00
49413;DHT22;35493;50.276;9.372;2023-12-22T08:32:27;5.40;89.10
49413;DHT22;35493;50.276;9.372;2023-12-22T08:35:00;5.50;89.00
49413;DHT22;35493;50.276;9.372;2023-12-22T08:37:34;5.50;88.90
49413;DHT22;35493;50.276;9.372;2023-12-22T08:40:08;5.50;88.90
49413;DHT22;35493;50.276;9.372;2023-12-22T08:42:34;5.50;88.90
49413;DHT22;35493;50.276;9.372;2023-12-22T08:45:08;5.60;88.80
49413;DHT22;35493;50.276;9.372;2023-12-22T08:47:42;5.60;88.90
49413;DHT22;35493;50.276;9.372;2023-12-22T08:50:15;5.70;88.60
49413;DHT22;35493;50.276;9.372;2023-12-22T08:52:48;5.70;88.70
49413;DHT22;35493;50.276;9.372;2023-12-22T08:55:21;5.70;88.60
49413;DHT22;35493;50.276;9.372;2023-12-22T08:57:55;5.70;88.50
49413;DHT22;35493;50.276;9.372;2023-12-22T09:00:28;5.80;88.60
49413;DHT22;35493;50.276;9.372;2023-12-22T09:03:03;5.80;88.60
49413;DHT22;35493;50.276;9.372;2023-12-22T09:05:36;5.80;88.50
49413;DHT22;35493;50.276;9.372;2023-12-22T09:08:10;5.80;88.60
49413;DHT22;35493;50.276;9.372;2023-12-22T09:10:43;5.70;88.50
49413;DHT22;35493;50.276;9.372;2023-12-22T09:13:16;5.70;88.80
49413;DHT22;35493;50.276;9.372;2023-12-22T09:15:49;5.80;88.70
49413;DHT22;35493;50.276;9.372;2023-12-22T09:18:24;5.70;88.80
49413;DHT22;35493;50.276;9.372;2023-12-22T09:20:57;5.70;89.00
49413;DHT22;35493;50.276;9.372;2023-12-22T09:23:30;5.80;89.10
49413;DHT22;35493;50.276;9.372;2023-12-22T09:26:03;5.80;89.10
49413;DHT22;35493;50.276;9.372;2023-12-22T09:28:36;5.80;89.10
49413;DHT22;35493;50.276;9.372;2023-12-22T09:31:03;5.80;89.00
49413;DHT22;35493;50.276;9.372;2023-12-22T09:33:39;5.80;89.10
49413;DHT22;35493;50.276;9.372;2023-12-22T09:36:06;5.80;89.10
49413;DHT22;35493;50.276;9.372;2023-12-22T09:38:39;5.90;89.20
49413;DHT22;35493;50.276;9.372;2023-12-22T09:41:13;5.90;89.20
49413;DHT22;35493;50.276;9.372;2023-12-22T09:43:48;5.90;89.30
49413;DHT22;35493;50.276;9.372;2023-12-22T09:46:22;6.00;89.40
49413;DHT22;35493;50.276;9.372;2023-12-22T09:48:59;5.90;89.50
49413;DHT22;35493;50.276;9.372;2023-12-22T09:51:32;6.00;89.60
49413;DHT22;35493;50.276;9.372;2023-12-22T09:54:06;5.90;89.70
49413;DHT22;35493;50.276;9.372;2023-12-22T09:56:40;6.00;89.60
49413;DHT22;35493;50.276;9.372;2023-12-22T09:59:21;6.00;89.80
49413;DHT22;35493;50.276;9.372;2023-12-22T10:01:54;6.10;89.60
49413;DHT22;35493;50.276;9.372;2023-12-22T10:04:29;6.00;89.80
49413;DHT22;35493;50.276;9.372;2023-12-22T10:07:02;6.10;89.80
49413;DHT22;35493;50.276;9.372;2023-12-22T10:09:30;6.10;89.80
49413;DHT22;35493;50.276;9.372;2023-12-22T10:12:04;6.20;89.80
49413;DHT22;35493;50.276;9.372;2023-12-22T10:14:37;6.20;89.80
49413;DHT22;35493;50.276;9.372;2023-12-22T10:17:10;6.20;89.70
49413;DHT22;35493;50.276;9.372;2023-12-22T10:19:45;6.20;89.70
49413;DHT22;35493;50.276;9.372;2023-12-22T10:22:18;6.20;89.60
49413;DHT22;35493;50.276;9.372;2023-12-22T10:24:54;6.20;89.50
49413;DHT22;35493;50.276;9.372;2023-12-22T10:27:28;6.20;89.40
49413;DHT22;35493;50.276;9.372;2023-12-22T10:30:04;6.20;89.40
49413;DHT22;35493;50.276;9.372;2023-12-22T10:32:39;6.20;89.60
49413;DHT22;35493;50.276;9.372;2023-12-22T10:35:14;6.20;89.70
49413;DHT22;35493;50.276;9.372;2023-12-22T10:37:47;6.20;89.70
49413;DHT22;35493;50.276;9.372;2023-12-22T10:40:24;6.20;89.90
49413;DHT22;35493;50.276;9.372;2023-12-22T10:42:56;6.20;89.90
49413;DHT22;35493;50.276;9.372;2023-12-22T10:45:31;6.10;89.90
49413;DHT22;35493;50.276;9.372;2023-12-22T10:48:05;6.20;90.00
49413;DHT22;35493;50.276;9.372;2023-12-22T10:50:34;6.20;90.10
49413;DHT22;35493;50.276;9.372;2023-12-22T10:53:06;6.30;90.10
49413;DHT22;35493;50.276;9.372;2023-12-22T10:55:40;6.40;90.00
49413;DHT22;35493;50.276;9.372;2023-12-22T10:58:13;6.40;90.00
49413;DHT22;35493;50.276;9.372;2023-12-22T11:00:46;6.40;90.00
49413;DHT22;35493;50.276;9.372;2023-12-22T11:03:21;6.50;89.80
49413;DHT22;35493;50.276;9.372;2023-12-22T11:05:58;6.50;90.00
49413;DHT22;35493;50.276;9.372;2023-12-22T11:08:33;6.50;89.90
49413;DHT22;35493;50.276;9.372;2023-12-22T11:11:10;6.50;89.90
49413;DHT22;35493;50.276;9.372;2023-12-22T11:13:45;6.50;90.00
49413;DHT22;35493;50.276;9.372;2023-12-22T11:16:18;6.50;89.90
49413;DHT22;35493;50.276;9.372;2023-12-22T11:18:52;6.50;90.10
49413;DHT22;35493;50.276;9.372;2023-12-22T11:21:28;6.50;90.00
49413;DHT22;35493;50.276;9.372;2023-12-22T11:24:01;6.50;90.10
49413;DHT22;35493;50.276;9.372;2023-12-22T11:26:35;6.50;90.30
49413;DHT22;35493;50.276;9.372;2023-12-22T11:29:24;6.50;90.30
49413;DHT22;35493;50.276;9.372;2023-12-22T11:31:58;6.50;90.50
49413;DHT22;35493;50.276;9.372;2023-12-22T11:34:39;6.60;90.50
49413;DHT22;35493;50.276;9.372;2023-12-22T11:37:15;6.60;90.60
49413;DHT22;35493;50.276;9.372;2023-12-22T11:39:48;6.60;90.60
49413;DHT22;35493;50.276;9.372;2023-12-22T11:42:23;6.60;90.70
49413;DHT22;35493;50.276;9.372;2023-12-22T11:44:57;6.70;90.50
49413;DHT22;35493;50.276;9.372;2023-12-22T11:47:31;6.70;90.60
49413;DHT22;35493;50.276;9.372;2023-12-22T11:50:08;6.70;90.70
49413;DHT22;35493;50.276;9.372;2023-12-22T11:52:43;6.70;90.80
49413;DHT22;35493;50.276;9.372;2023-12-22T11:55:17;6.70;90.80
49413;DHT22;35493;50.276;9.372;2023-12-22T11:57:49;6.70;91.00
49413;DHT22;35493;50.276;9.372;2023-12-22T12:03:11;6.70;91.20
49413;DHT22;35493;50.276;9.372;2023-12-22T12:05:43;6.80;91.40
49413;DHT22;35493;50.276;9.372;2023-12-22T12:08:18;6.80;91.20
49413;DHT22;35493;50.276;9.372;2023-12-22T12:11:08;6.80;91.30
49413;DHT22;35493;50.276;9.372;2023-12-22T12:13:42;6.80;91.30
49413;DHT22;35493;50.276;9.372;2023-12-22T12:16:18;6.80;91.30
49413;DHT22;35493;50.276;9.372;2023-12-22T12:18:52;6.90;91.40
49413;DHT22;35493;50.276;9.372;2023-12-22T12:21:25;6.90;91.40
49413;DHT22;35493;50.276;9.372;2023-12-22T12:24:00;6.90;91.40
49413;DHT22;35493;50.276;9.372;2023-12-22T12:26:34;6.90;91.40
49413;DHT22;35493;50.276;9.372;2023-12-22T12:29:07;7.00;91.30
49413;DHT22;35493;50.276;9.372;2023-12-22T12:31:42;7.00;91.30
49413;DHT22;35493;50.276;9.372;2023-12-22T12:34:14;7.00;91.40
49413;DHT22;35493;50.276;9.372;2023-12-22T12:36:52;7.00;91.50
49413;DHT22;35493;50.276;9.372;2023-12-22T12:39:29;7.10;91.50
49413;DHT22;35493;50.276;9.372;2023-12-22T12:42:03;7.10;91.60
49413;DHT22;35493;50.276;9.372;2023-12-22T12:44:39;7.10;91.60
49413;DHT22;35493;50.276;9.372;2023-12-22T12:47:14;7.10;91.60
49413;DHT22;35493;50.276;9.372;2023-12-22T12:49:47;7.10;91.70
49413;DHT22;35493;50.276;9.372;2023-12-22T12:52:29;7.10;91.70
49413;DHT22;35493;50.276;9.372;2023-12-22T12:55:03;7.10;91.70
49413;DHT22;35493;50.276;9.372;2023-12-22T12:57:37;7.20;91.70
49413;DHT22;35493;50.276;9.372;2023-12-22T13:00:10;7.20;91.60
49413;DHT22;35493;50.276;9.372;2023-12-22T13:02:44;7.20;91.70
49413;DHT22;35493;50.276;9.372;2023-12-22T13:05:20;7.20;91.70
49413;DHT22;35493;50.276;9.372;2023-12-22T13:08:02;7.20;91.80
49413;DHT22;35493;50.276;9.372;2023-12-22T13:10:40;7.30;91.80
49413;DHT22;35493;50.276;9.372;2023-12-22T13:13:14;7.30;91.70
49413;DHT22;35493;50.276;9.372;2023-12-22T13:15:46;7.30;91.80
49413;DHT22;35493;50.276;9.372;2023-12-22T13:18:20;7.20;92.00
49413;DHT22;35493;50.276;9.372;2023-12-22T13:20:53;7.30;91.90
49413;DHT22;35493;50.276;9.372;2023-12-22T13:23:26;7.30;91.90
49413;DHT22;35493;50.276;9.372;2023-12-22T13:26:00;7.30;91.90
49413;DHT22;35493;50.276;9.372;2023-12-22T13:28:34;7.30;92.00
49413;DHT22;35493;50.276;9.372;2023-12-22T13:31:10;7.30;92.00
49413;DHT22;35493;50.276;9.372;2023-12-22T13:33:44;7.30;92.10
49413;DHT22;35493;50.276;9.372;2023-12-22T13:36:17;7.40;92.00
49413;DHT22;35493;50.276;9.372;2023-12-22T13:38:50;7.40;91.90
49413;DHT22;35493;50.276;9.372;2023-12-22T13:41:24;7.40;91.90
49413;DHT22;35493;50.276;9.372;2023-12-22T13:43:58;7.40;91.90
49413;DHT22;35493;50.276;9.372;2023-12-22T13:46:32;7.40;91.90
49413;DHT22;35493;50.276;9.372;2023-12-22T13:49:07;7.50;91.90
49413;DHT22;35493;50.276;9.372;2023-12-22T13:51:41;7.50;91.90
49413;DHT22;35493;50.276;9.372;2023-12-22T13:54:15;7.60;91.80
49413;DHT22;35493;50.276;9.372;2023-12-22T13:56:49;7.60;91.70
49413;DHT22;35493;50.276;9.372;2023-12-22T13:59:30;7.60;91.60
49413;DHT22;35493;50.276;9.372;2023-12-22T14:02:03;7.60;91.60
49413;DHT22;35493;50.276;9.372;2023-12-22T14:04:35;7.60;91.80
49413;DHT22;35493;50.276;9.372;2023-12-22T14:07:09;7.60;91.80
49413;DHT22;35493;50.276;9.372;2023-12-22T14:09:42;7.60;91.90
49413;DHT22;35493;50.276;9.372;2023-12-22T14:12:17;7.60;91.90
49413;DHT22;35493;50.276;9.372;2023-12-22T14:14:50;7.60;91.90
49413;DHT22;35493;50.276;9.372;2023-12-22T14:17:24;7.70;92.00
49413;DHT22;35493;50.276;9.372;2023-12-22T14:19:57;7.70;92.00
49413;DHT22;35493;50.276;9.372;2023-12-22T14:22:30;7.70;92.00
49413;DHT22;35493;50.276;9.372;2023-12-22T14:25:03;7.70;92.00
49413;DHT22;35493;50.276;9.372;2023-12-22T14:27:38;7.60;92.00
49413;DHT22;35493;50.276;9.372;2023-12-22T14:30:12;7.60;92.10
49413;DHT22;35493;50.276;9.372;2023-12-22T14:32:46;7.70;92.10
49413;DHT22;35493;50.276;9.372;2023-12-22T14:35:19;7.70;92.10
49413;DHT22;35493;50.276;9.372;2023-12-22T14:37:52;7.70;92.00
49413;DHT22;35493;50.276;9.372;2023-12-22T14:40:25;7.70;92.10
49413;DHT22;35493;50.276;9.372;2023-12-22T14:42:59;7.60;92.00
49413;DHT22;35493;50.276;9.372;2023-12-22T14:45:34;7.70;92.00
49413;DHT22;35493;50.276;9.372;2023-12-22T14:48:08;7.70;91.90
49413;DHT22;35493;50.276;9.372;2023-12-22T14:50:34;7.70;91.80
49413;DHT22;35493;50.276;9.372;2023-12-22T14:53:08;7.70;91.80
49413;DHT22;35493;50.276;9.372;2023-12-22T14:55:41;7.70;91.90
49413;DHT22;35493;50.276;9.372;2023-12-22T14:58:15;7.70;91.80
49413;DHT22;35493;50.276;9.372;2023-12-22T15:00:49;7.70;91.80
49413;DHT22;35493;50.276;9.372;2023-12-22T15:03:22;7.70;91.80
49413;DHT22;35493;50.276;9.372;2023-12-22T15:05:55;7.70;91.80
49413;DHT22;35493;50.276;9.372;2023-12-22T15:08:28;7.70;91.80
49413;DHT22;35493;50.276;9.372;2023-12-22T15:11:01;7.70;91.70
49413;DHT22;35493;50.276;9.372;2023-12-22T15:13:35;7.70;91.70
49413;DHT22;35493;50.276;9.372;2023-12-22T15:16:09;7.80;91.70
49413;DHT22;35493;50.276;9.372;2023-12-22T15:18:42;7.80;91.70
49413;DHT22;35493;50.276;9.372;2023-12-22T15:21:19;7.70;91.80
49413;DHT22;35493;50.276;9.372;2023-12-22T15:23:52;7.80;91.80
49413;DHT22;35493;50.276;9.372;2023-12-22T15:26:25;7.80;91.90
49413;DHT22;35493;50.276;9.372;2023-12-22T15:29:00;7.90;92.00
49413;DHT22;35493;50.276;9.372;2023-12-22T15:31:34;8.20;92.00
49413;DHT22;35493;50.276;9.372;2023-12-22T15:34:08;8.20;91.60
49413;DHT22;35493;50.276;9.372;2023-12-22T15:36:41;8.20;91.70
49413;DHT22;35493;50.276;9.372;2023-12-22T15:39:14;8.20;91.40
49413;DHT22;35493;50.276;9.372;2023-12-22T15:41:47;8.40;91.80
49413;DHT22;35493;50.276;9.372;2023-12-22T15:44:15;8.40;91.00
49413;DHT22;35493;50.276;9.372;2023-12-22T15:46:48;8.40;91.10
49413;DHT22;35493;50.276;9.372;2023-12-22T15:49:21;8.40;91.10
49413;DHT22;35493;50.276;9.372;2023-12-22T15:51:54;8.40;91.00
49413;DHT22;35493;50.276;9.372;2023-12-22T15:54:28;8.40;91.00
49413;DHT22;35493;50.276;9.372;2023-12-22T15:57:01;8.40;91.20
49413;DHT22;35493;50.276;9.372;2023-12-22T15:59:36;8.40;90.80
49413;DHT22;35493;50.276;9.372;2023-12-22T16:02:10;8.50;90.70
49413;DHT22;35493;50.276;9.372;2023-12-22T16:04:43;8.40;90.60
49413;DHT22;35493;50.276;9.372;2023-12-22T16:07:17;8.40;90.70
49413;DHT22;35493;50.276;9.372;2023-12-22T16:09:50;8.40;90.80
49413;DHT22;35493;50.276;9.372;2023-12-22T16:12:23;8.50;90.70
49413;DHT22;35493;50.276;9.372;2023-12-22T16:14:57;8.60;90.40
49413;DHT22;35493;50.276;9.372;2023-12-22T16:17:31;8.70;90.50
49413;DHT22;35493;50.276;9.372;2023-12-22T16:19:57;8.70;90.80
49413;DHT22;35493;50.276;9.372;2023-12-22T16:22:31;8.60;90.80
49413;DHT22;35493;50.276;9.372;2023-12-22T16:25:05;8.50;90.80
49413;DHT22;35493;50.276;9.372;2023-12-22T16:27:40;8.40;91.00